Pagina principale
METAR-TAF:

METAR-TAF

Aeroporti :

Ulan Bator, Mongolia

Aeroporto di Ulan Bator-Gengis Khan

latitudine: 47-55N, longitudine: 106-52E, altezza: 1306 m

Osservazione

Il bollettino è stato emesso 29 minuti fa, alle 21:00 UTC
Vento 2 kt da direzioni variabili
Temperature -23°C
Umidità 84%
Pressione 1012 hPa
Visibilità: 8000 m

METAR: ZMUB 242100Z VRB01MPS 8000NW NSC M23/M25 Q1012 NOSIG RMK QFE652.4 80 NT

Ora: 05:29 (21:29 UTC)

Previsione

Il bollettino è stato emesso 4 ore e 49 minuti fa, alle 16:40 UTC
Previsione valida dal 24 alle 18 UTC al 25 alle 24 UTC
Vento 4 kt da direzioni variabili
Visibilità: 6000 m
Nubi sparse ad un'altezza di 10000 ft

TAF: ZMUB 241640Z 2418/2524 VRB02MPS 6000 SCT100 TNM26/2423Z TXM08/2507Z

Osservazioni e previsioni meteorologiche di più di 4000 aeroporti (messaggi METAR e TAF).

Le stazioni disponibili sono rappresentate dai dischi gialli e rossi sulla carta.

Puntare il mouse per vedere il nome della stazione.

Clicca sopra per visualizzare le osservazioni e previsioni meteorologiche.

Per cambiare la mappa : fare clic sui pulsanti verdi con una croce nera per ingrandire, il pulsante verde con un trattino per diminuire, o sulla freccia verde per le mappe adiacenti.


METAR-TAF: